Farmersburg, Iowa
Current Conditions -  °F | °C
As of 8:35 PM on Saturday 25 Oct 2014 (Local Time) from KPDC Reporting Station
Clear Clear  
Wind Chill: 46°   Ceiling: Unl
Heat Index: 48°   Visibility: 10mi
Dew Point: 31°   Wind: 5mph
Humidity: 53%   Direction: 260°W
Pressure: 30.02"   Gusts: NA
Location:  42.96°N, 91.37°W
Report Text: KPDC 260135Z AUTO 26004KT 10SM CLR 09/00 A3002 RMK AO2 T00881003
Loading
Personal Weather Stations






























Interactive Weather Map
Tropical Storm Tracking
New forecast layout! Learn more

10-Day Weather Forecast

Advertisements
Track Severe Weather on mobile